Pointblank, Texas
Current Conditions -  °F | °C
As of 6:53 PM on Sunday 23 Nov 2014 (Local Time) from KUTS Reporting Station
Clear Clear  
Wind Chill: 68°   Ceiling: Unl
Heat Index: 68°   Visibility: 10mi
Dew Point: 50°   Wind: 7mph
Humidity: 52%   Direction: 200°SSW
Pressure: 29.58"   Gusts: NA
Location:  30.74°N, 95.21°W
Report Text: KUTS 240053Z AUTO 20006KT 10SM CLR 20/10 A2958 RMK AO2 SLP012 T02000100
Loading
Personal Weather Stations






























Interactive Weather Map New forecast layout! Learn more

10-Day Weather Forecast

Advertisements
Track Severe Weather on mobile